Time;durP1;ratioP1;P1;durP2;ratioP2;P2;SDS_P1;SDS_P2;PMS_P1;PMS_P2;Temp;Humidity;BMP_temperature;BMP_pressure;BME280_temperature;BME280_humidity;BME280_pressure;Samples;Min_cycle;Max_cycle;Signal;HPM_P1;HPM_P2
2023/10/11 00:03:32;;;;;;;25.88;18.92;;;;;;;12.57;100.00;100691.42;4967789;57;1145303;-73
2023/10/11 00:08:39;;;;;;;26.63;18.10;;;;;;;12.57;100.00;100682.14;4989530;57;1145170;-73
2023/10/11 00:13:37;;;;;;;22.67;17.87;;;;;;;12.57;100.00;100672.85;4973334;57;1144998;-73
2023/10/11 00:18:44;;;;;;;29.30;17.92;;;;;;;12.56;100.00;100668.52;4963542;58;1145160;-73
2023/10/11 00:23:50;;;;;;;25.63;16.70;;;;;;;12.55;100.00;100656.22;4980072;58;1144971;-73
2023/10/11 00:28:56;;;;;;;25.13;16.57;;;;;;;12.55;100.00;100649.09;4959978;57;1145087;-73
2023/10/11 00:34:03;;;;;;;24.03;17.87;;;;;;;12.54;100.00;100642.11;4880756;57;1145319;-73
2023/10/11 00:39:10;;;;;;;22.77;16.57;;;;;;;12.54;100.00;100642.59;4980092;56;1145031;-74
2023/10/11 00:44:19;;;;;;;26.35;16.67;;;;;;;12.55;100.00;100641.63;4959671;56;1144942;-73
2023/10/11 00:49:23;;;;;;;26.47;17.60;;;;;;;12.56;100.00;100633.53;4961140;56;1145247;-73
2023/10/11 00:54:29;;;;;;;24.77;16.13;;;;;;;12.56;100.00;100623.41;5047437;56;1145085;-73
2023/10/11 00:59:36;;;;;;;20.30;14.60;;;;;;;12.58;100.00;100613.52;5118802;56;1145117;-74
2023/10/11 01:04:42;;;;;;;18.73;14.37;;;;;;;12.60;100.00;100607.59;5118619;56;1145353;-74
2023/10/11 01:09:48;;;;;;;21.93;15.70;;;;;;;12.63;100.00;100602.87;5118337;56;1145082;-73
2023/10/11 01:14:59;;;;;;;18.30;13.60;;;;;;;12.61;100.00;100598.67;5138498;56;1145011;-73
2023/10/11 01:20:13;;;;;;;16.07;12.90;;;;;;;12.65;100.00;100578.87;5118431;56;1144861;-73
2023/10/11 01:25:22;;;;;;;17.62;13.15;;;;;;;12.65;100.00;100578.87;5119065;56;1145089;-73
2023/10/11 01:30:27;;;;;;;16.52;11.88;;;;;;;12.71;100.00;100584.96;5074357;56;1144904;-74
2023/10/11 01:35:38;;;;;;;16.93;12.17;;;;;;;12.76;100.00;100583.25;5058839;56;1145444;-73
2023/10/11 01:40:40;;;;;;;17.53;11.10;;;;;;;12.78;100.00;100582.16;5116947;55;1145013;-73
2023/10/11 01:45:46;;;;;;;22.75;11.73;;;;;;;12.82;100.00;100580.92;5119089;56;1145066;-73
2023/10/11 01:50:51;;;;;;;16.83;11.67;;;;;;;12.83;100.00;100583.91;5119497;56;1145115;-73
2023/10/11 01:55:57;;;;;;;21.37;12.40;;;;;;;12.85;100.00;100581.12;5103092;56;1145178;-73
2023/10/11 02:01:02;;;;;;;15.00;11.10;;;;;;;12.84;100.00;100579.44;5072807;57;1145306;-74
2023/10/11 02:06:10;;;;;;;15.37;11.30;;;;;;;12.84;100.00;100578.95;5090869;57;1216608;-73
2023/10/11 02:11:16;;;;;;;17.62;12.05;;;;;;;12.83;100.00;100571.16;5072649;57;1145159;-73
2023/10/11 02:16:21;;;;;;;20.12;10.60;;;;;;;12.83;100.00;100564.00;5072861;57;1144883;-73
2023/10/11 02:21:31;;;;;;;20.38;11.04;;;;;;;12.82;100.00;100553.05;5092722;57;1145037;-73
2023/10/11 02:26:37;;;;;;;14.47;11.27;;;;;;;12.85;100.00;100550.59;5032050;56;1145339;-73
2023/10/11 02:31:43;;;;;;;16.05;11.43;;;;;;;12.82;100.00;100543.77;5044120;56;1145243;-74
2023/10/11 02:37:04;;;;;;;14.90;12.20;;;;;;;12.81;100.00;100542.09;5124130;55;1145408;-74
2023/10/11 02:41:57;;;;;;;18.47;12.03;;;;;;;12.79;100.00;100525.94;5097835;56;1145484;-73
2023/10/11 02:47:06;;;;;;;15.73;11.87;;;;;;;12.79;100.00;100525.94;5104075;56;1145359;-73
2023/10/11 02:52:13;;;;;;;14.90;11.23;;;;;;;12.79;100.00;100520.14;5105550;56;1150568;-75
2023/10/11 02:57:21;;;;;;;16.67;11.93;;;;;;;12.78;100.00;100513.63;5106980;56;1145140;-73
2023/10/11 03:02:29;;;;;;;18.20;12.07;;;;;;;12.78;100.00;100499.03;5114560;56;1145051;-73
2023/10/11 03:07:34;;;;;;;15.17;10.90;;;;;;;12.77;100.00;100505.31;5134870;56;1145155;-73
2023/10/11 03:12:42;;;;;;;16.73;12.47;;;;;;;12.76;100.00;100508.94;5115207;56;1145010;-73
2023/10/11 03:17:52;;;;;;;15.17;11.93;;;;;;;12.74;100.00;100491.82;5114837;56;1145318;-73
2023/10/11 03:23:03;;;;;;;15.37;11.67;;;;;;;12.76;100.00;100483.73;5070790;56;1145178;-73
2023/10/11 03:28:04;;;;;;;18.87;11.90;;;;;;;12.75;100.00;100480.72;5081756;56;1145337;-73
2023/10/11 03:33:10;;;;;;;17.47;12.33;;;;;;;12.74;100.00;100487.84;5113975;56;1145260;-73
2023/10/11 03:38:21;;;;;;;18.53;11.10;;;;;;;12.74;100.00;100489.17;5134553;56;1145384;-73
2023/10/11 03:43:26;;;;;;;17.00;11.17;;;;;;;12.72;100.00;100488.45;5114593;56;1144929;-73
2023/10/11 03:48:43;;;;;;;15.87;10.53;;;;;;;12.72;100.00;100484.96;5114708;56;1145198;-73
2023/10/11 03:53:39;;;;;;;18.43;11.73;;;;;;;12.72;100.00;100460.59;5092995;56;1145135;-73
2023/10/11 03:58:44;;;;;;;12.80;10.33;;;;;;;12.70;100.00;100465.19;5135174;56;1145211;-73
2023/10/11 04:03:51;;;;;;;16.67;11.40;;;;;;;12.68;100.00;100460.50;5117950;56;1145054;-73
2023/10/11 04:09:02;;;;;;;19.50;11.07;;;;;;;12.67;100.00;100447.75;5117794;56;1144850;-74
2023/10/11 04:14:57;;;;;;;11.93;9.97;;;;;;;12.69;100.00;100439.14;5138069;56;1144888;-73
2023/10/11 04:19:13;;;;;;;13.58;9.03;;;;;;;12.71;100.00;100425.73;5013871;56;1143392;-75
2023/10/11 04:24:21;;;;;;;18.63;10.47;;;;;;;12.72;100.00;100419.46;5049206;56;1142893;-73
2023/10/11 04:29:31;;;;;;;15.93;10.50;;;;;;;12.69;100.00;100433.83;5049611;56;1144977;-73
2023/10/11 04:34:38;;;;;;;17.70;11.13;;;;;;;12.67;100.00;100430.50;5033784;56;1144937;-73
2023/10/11 04:39:56;;;;;;;14.60;11.40;;;;;;;12.65;100.00;100415.20;5033133;56;1145382;-73
2023/10/11 04:44:54;;;;;;;13.97;10.90;;;;;;;12.64;100.00;100408.21;5051562;56;1144941;-73
2023/10/11 04:49:59;;;;;;;19.60;11.33;;;;;;;12.63;100.00;100404.36;5033815;56;1144905;-73
2023/10/11 04:55:12;;;;;;;21.37;11.90;;;;;;;12.60;100.00;100396.67;4956957;57;1145179;-73
2023/10/11 05:00:18;;;;;;;15.47;11.57;;;;;;;12.58;100.00;100396.80;5072920;56;1145083;-74
2023/10/11 05:05:21;;;;;;;16.85;10.48;;;;;;;12.58;100.00;100388.00;5092057;56;1144902;-73
2023/10/11 05:10:30;;;;;;;15.20;10.30;;;;;;;12.58;100.00;100381.37;4973014;57;1145187;-74
2023/10/11 05:15:42;;;;;;;14.27;9.93;;;;;;;12.61;100.00;100379.77;4969750;57;1144943;-74
2023/10/11 05:25:58;;;;;;;15.75;9.03;;;;;;;12.59;100.00;100370.62;4937542;58;1145431;-73
2023/10/11 05:36:36;;;;;;;16.17;10.30;;;;;;;12.61;100.00;100364.70;4949495;57;1145211;-74
2023/10/11 05:52:13;;;;;;;19.77;10.00;;;;;;;12.72;100.00;100361.08;5130746;55;1143344;-74
2023/10/11 05:57:23;;;;;;;14.83;8.95;;;;;;;12.79;100.00;100366.70;5089008;56;1145273;-73
2023/10/11 06:02:27;;;;;;;16.48;9.45;;;;;;;12.85;100.00;100368.30;5019193;56;1143356;-74
2023/10/11 06:07:37;;;;;;;15.60;9.60;;;;;;;12.91;100.00;100357.62;4989215;57;1142946;-73
2023/10/11 06:12:41;;;;;;;17.30;9.10;;;;;;;12.97;100.00;100368.55;4960256;58;1142944;-73
2023/10/11 06:17:55;;;;;;;13.48;8.98;;;;;;;13.04;100.00;100363.02;4975739;57;1143194;-74
2023/10/11 06:22:54;;;;;;;16.83;7.23;;;;;;;13.13;100.00;100375.97;4978331;56;1143164;-74
2023/10/11 06:33:07;;;;;;;21.70;9.27;;;;;;;13.30;100.00;100378.42;5032143;57;1143519;-74
2023/10/11 06:38:13;;;;;;;11.73;7.77;;;;;;;13.37;100.00;100381.73;5054358;57;1143089;-74
2023/10/11 06:43:20;;;;;;;17.70;6.97;;;;;;;13.46;100.00;100372.06;5033874;57;1143119;-73
2023/10/11 06:48:26;;;;;;;10.23;6.90;;;;;;;13.53;100.00;100354.59;5006952;57;1143257;-75
2023/10/11 06:53:33;;;;;;;15.63;8.00;;;;;;;13.61;100.00;100353.38;4974331;58;1143131;-74
2023/10/11 06:58:44;;;;;;;17.97;8.23;;;;;;;13.69;100.00;100358.83;4952994;58;1143085;-74
2023/10/11 07:03:45;;;;;;;12.85;7.65;;;;;;;13.75;100.00;100355.27;4958945;58;1142976;-74
2023/10/11 07:08:53;;;;;;;12.03;7.73;;;;;;;13.82;100.00;100359.01;5031559;57;1142978;-74
2023/10/11 07:14:00;;;;;;;18.73;7.73;;;;;;;13.87;100.00;100355.44;5018941;57;1143209;-74
2023/10/11 07:19:06;;;;;;;14.27;8.90;;;;;;;13.95;100.00;100348.89;5056086;57;1143087;-74
2023/10/11 07:29:33;;;;;;;27.58;8.55;;;;;;;14.11;100.00;100338.97;5051940;56;1143193;-74
2023/10/11 07:34:35;;;;;;;12.47;7.05;;;;;;;14.18;100.00;100330.28;5125680;56;1143233;-75
2023/10/11 07:39:41;;;;;;;15.10;7.90;;;;;;;14.29;100.00;100320.77;5054305;55;1143488;-75
2023/10/11 07:44:50;;;;;;;20.47;7.90;;;;;;;14.39;100.00;100318.88;5020730;56;1143039;-74
2023/10/11 07:49:54;;;;;;;20.73;7.87;;;;;;;14.51;100.00;100320.06;5012874;56;1143125;-75
2023/10/11 07:55:00;;;;;;;15.83;8.93;;;;;;;14.77;100.00;100301.05;5052660;56;1143093;-74
2023/10/11 08:00:16;;;;;;;15.70;9.27;;;;;;;14.77;100.00;100301.05;5075748;56;1143028;-75
2023/10/11 08:05:15;;;;;;;14.47;8.58;;;;;;;14.88;100.00;100307.47;5053991;56;1142936;-74
2023/10/11 08:10:33;;;;;;;15.18;7.94;;;;;;;14.98;100.00;100304.22;5046767;56;1143160;-75
2023/10/11 08:15:39;;;;;;;18.07;8.00;;;;;;;15.08;100.00;100302.83;5047056;56;1143228;-76
2023/10/11 08:20:45;;;;;;;19.30;8.77;;;;;;;15.18;100.00;100302.73;5068961;56;1143211;-73
2023/10/11 08:25:51;;;;;;;18.63;7.70;;;;;;;15.53;100.00;100300.02;5023100;56;1143111;-74
2023/10/11 08:30:58;;;;;;;12.78;7.12;;;;;;;15.53;100.00;100300.02;5030407;56;1143052;-74
2023/10/11 08:36:04;;;;;;;16.03;8.77;;;;;;;15.75;100.00;100298.19;5042081;56;1143060;-74
2023/10/11 08:41:14;;;;;;;49.34;27.96;;;;;;;15.92;100.00;100280.94;5022697;56;1142809;-73
2023/10/11 08:46:18;;;;;;;22.00;9.13;;;;;;;16.06;100.00;100273.17;5022487;57;1145293;-76
2023/10/11 08:51:24;;;;;;;21.87;9.27;;;;;;;16.13;100.00;100269.38;5074968;56;1143037;-73
2023/10/11 08:56:32;;;;;;;18.97;8.13;;;;;;;16.15;100.00;100285.57;5021642;56;1143006;-74
2023/10/11 09:01:37;;;;;;;15.77;8.87;;;;;;;16.19;100.00;100278.89;5040374;56;1143141;-74
2023/10/11 09:06:45;;;;;;;15.23;7.30;;;;;;;16.25;100.00;100284.09;5086141;56;1143406;-73
2023/10/11 09:11:57;;;;;;;17.70;8.23;;;;;;;16.39;100.00;100277.30;5084049;56;1143443;-73
2023/10/11 09:17:07;;;;;;;14.70;7.83;;;;;;;16.53;100.00;100276.17;5035407;57;1143259;-73
2023/10/11 09:22:18;;;;;;;11.17;6.80;;;;;;;16.76;100.00;100279.59;4994408;57;1143363;-74
2023/10/11 09:27:19;;;;;;;12.40;7.20;;;;;;;16.98;100.00;100264.25;5053995;57;1143326;-74
2023/10/11 09:32:35;;;;;;;14.50;7.60;;;;;;;17.12;100.00;100264.91;5035322;56;1142893;-74
2023/10/11 09:37:41;;;;;;;12.93;7.10;;;;;;;17.26;100.00;100266.61;5034550;56;1143227;-73
2023/10/11 09:42:49;;;;;;;14.57;6.10;;;;;;;17.29;100.00;100279.11;5034680;56;1143230;-75
2023/10/11 09:47:56;;;;;;;15.80;7.43;;;;;;;17.32;100.00;100277.44;5078265;56;1143069;-73
2023/10/11 09:53:07;;;;;;;16.87;6.67;;;;;;;17.38;100.00;100281.30;5053235;56;1142836;-73
2023/10/11 09:58:41;;;;;;;17.07;7.20;;;;;;;17.44;100.00;100271.24;5037755;56;1143119;-73
2023/10/11 10:03:52;;;;;;;13.47;6.67;;;;;;;17.54;100.00;100271.91;5055184;56;1142926;-73
2023/10/11 10:14:30;;;;;;;10.70;6.12;;;;;;;17.82;100.00;100255.83;5008358;57;1143137;-74
2023/10/11 10:19:39;;;;;;;8.33;5.43;;;;;;;17.97;100.00;100253.77;5094367;56;1143042;-75
2023/10/11 10:24:47;;;;;;;9.20;5.00;;;;;;;18.09;100.00;100261.23;5101259;56;1141327;-74
2023/10/11 10:30:00;;;;;;;20.90;6.20;;;;;;;18.30;100.00;100270.02;5072640;56;1141001;-73
2023/10/11 10:35:25;;;;;;;11.30;4.97;;;;;;;18.47;100.00;100264.08;5081305;57;1143236;-72
2023/10/11 10:40:30;;;;;;;12.07;5.85;;;;;;;18.56;100.00;100261.67;5086114;57;1142996;-73
2023/10/11 10:45:36;;;;;;;12.93;5.03;;;;;;;18.63;100.00;100247.95;5103947;56;1142876;-72
2023/10/11 10:50:54;;;;;;;12.10;5.58;;;;;;;18.74;100.00;100257.41;5093875;56;1142927;-72
2023/10/11 10:56:00;;;;;;;10.70;5.63;;;;;;;18.88;100.00;100222.63;4962909;57;1142898;-72
2023/10/11 11:01:05;;;;;;;10.68;5.92;;;;;;;19.08;100.00;100223.48;5029155;57;1142871;-72
2023/10/11 11:06:11;;;;;;;13.20;5.97;;;;;;;19.27;100.00;100223.78;4998794;56;1142639;-72
2023/10/11 11:11:25;;;;;;;9.83;5.47;;;;;;;19.53;100.00;100219.38;4948147;56;1142851;-72
2023/10/11 11:16:29;;;;;;;14.95;4.70;;;;;;;19.85;100.00;100222.71;4976688;57;1140989;-73
2023/10/11 11:21:44;;;;;;;15.03;5.50;;;;;;;20.11;100.00;100214.98;5019276;57;1143115;-73
2023/10/11 11:26:42;;;;;;;10.93;5.37;;;;;;;20.15;100.00;100186.75;5016762;56;1143062;-72
2023/10/11 11:31:59;;;;;;;19.20;5.40;;;;;;;20.23;100.00;100183.93;4955511;57;1143398;-73
2023/10/11 11:37:10;;;;;;;12.47;5.42;;;;;;;20.37;100.00;100187.62;4956789;58;1142849;-72
2023/10/11 11:42:24;;;;;;;;;;;;;;;20.48;100.00;100188.96;4941516;58;1143037;-73
2023/10/11 11:47:24;;;;;;;13.18;4.40;;;;;;;20.51;100.00;100197.99;4980885;57;978293;-72
2023/10/11 11:52:29;;;;;;;18.45;5.92;;;;;;;20.51;100.00;100220.32;5039084;57;1141041;-72
2023/10/11 11:57:35;;;;;;;15.63;4.93;;;;;;;20.54;100.00;100201.14;4941059;57;1143192;-72
2023/10/11 12:02:41;;;;;;;12.35;5.67;;;;;;;20.59;100.00;100199.23;5015497;56;1143340;-73
2023/10/11 12:07:48;;;;;;;15.08;5.47;;;;;;;20.64;100.00;100184.69;5041836;56;1143249;-73
2023/10/11 12:13:06;;;;;;;8.43;4.60;;;;;;;20.73;100.00;100167.94;5025807;57;1143088;-72
2023/10/11 12:18:09;;;;;;;15.96;5.90;;;;;;;20.85;100.00;100174.44;5068622;56;1141123;-72
2023/10/11 12:23:13;;;;;;;13.30;4.90;;;;;;;20.98;100.00;100180.76;5124530;56;1142733;-72
2023/10/11 12:28:22;;;;;;;13.03;4.58;;;;;;;21.04;100.00;100175.95;5087252;56;1142836;-73
2023/10/11 12:33:27;;;;;;;14.10;4.76;;;;;;;21.16;100.00;100155.24;5053876;56;1143050;-72
2023/10/11 12:38:38;;;;;;;10.60;4.70;;;;;;;21.28;100.00;100157.22;5053841;56;1143540;-73
2023/10/11 12:43:49;;;;;;;17.16;5.52;;;;;;;21.37;100.00;100159.25;5086156;56;1143104;-72
2023/10/11 12:48:54;;;;;;;17.27;5.50;;;;;;;21.51;100.00;100164.20;5157359;56;1143192;-73
2023/10/11 12:53:58;;;;;;;15.60;7.33;;;;;;;21.57;100.00;100160.69;5055276;56;1143255;-72
2023/10/11 12:59:10;;;;;;;16.25;5.40;;;;;;;21.63;100.00;100154.52;5053452;56;1143113;-72
2023/10/11 13:04:17;;;;;;;8.83;4.83;;;;;;;21.67;100.00;100158.48;4988092;57;1142888;-73
2023/10/11 13:09:30;;;;;;;14.58;6.08;;;;;;;21.58;100.00;100173.12;4890456;58;1141051;-73
2023/10/11 13:14:31;;;;;;;9.70;4.67;;;;;;;21.65;100.00;100153.30;5051778;56;1143116;-72
2023/10/11 13:19:37;;;;;;;13.20;4.63;;;;;;;21.88;100.00;100146.75;5139742;56;1140769;-73
2023/10/11 13:24:43;;;;;;;9.38;5.08;;;;;;;22.00;100.00;100141.13;5125139;56;1142900;-72
2023/10/11 13:29:48;;;;;;;9.60;5.03;;;;;;;22.15;100.00;100132.40;5127032;56;1140794;-73
2023/10/11 13:34:54;;;;;;;47.80;31.05;;;;;;;22.25;100.00;100127.95;5147411;56;1140826;-73
2023/10/11 13:40:05;;;;;;;29.50;8.68;;;;;;;22.32;100.00;100130.12;5126109;56;1145030;-72
2023/10/11 13:45:09;;;;;;;43.73;25.97;;;;;;;22.28;100.00;100142.37;5125666;56;1143126;-72
2023/10/11 13:50:20;;;;;;;21.60;6.10;;;;;;;22.24;100.00;100130.33;5113549;56;1145365;-72
2023/10/11 13:55:26;;;;;;;17.83;6.57;;;;;;;22.22;100.00;100121.62;4852641;58;1143401;-72
2023/10/11 14:06:00;;;;;;;12.98;5.58;;;;;;;22.09;100.00;100109.79;4986701;57;1144988;-72
2023/10/11 14:11:00;;;;;;;14.60;5.50;;;;;;;22.08;100.00;100107.30;5014924;57;1143025;-72
2023/10/11 14:16:05;;;;;;;20.30;8.10;;;;;;;22.07;100.00;100115.06;4942769;57;1142889;-72
2023/10/11 14:21:12;;;;;;;14.50;6.25;;;;;;;22.05;100.00;100103.66;4902060;58;1143127;-72
2023/10/11 14:26:18;;;;;;;14.90;5.92;;;;;;;21.97;100.00;100109.21;5029330;57;1143212;-72
2023/10/11 14:31:23;;;;;;;11.83;4.85;;;;;;;21.95;100.00;100108.06;4960421;57;1143158;-73
2023/10/11 14:36:31;;;;;;;11.97;4.87;;;;;;;21.97;100.00;100103.83;4995712;57;1143065;-72
2023/10/11 14:41:37;;;;;;;13.05;4.92;;;;;;;21.94;100.00;100091.59;5020129;56;1143143;-73
2023/10/11 14:46:44;;;;;;;15.27;5.63;;;;;;;21.91;100.00;100084.43;5054788;56;1164753;-73
2023/10/11 14:51:51;;;;;;;11.28;4.97;;;;;;;21.86;100.00;100083.69;5073687;57;1143039;-72
2023/10/11 14:57:00;;;;;;;13.83;5.25;;;;;;;21.79;100.00;100076.12;5116843;56;1142816;-72
2023/10/11 15:02:06;;;;;;;19.82;5.35;;;;;;;21.76;100.00;100061.20;5040139;56;1142845;-73
2023/10/11 15:07:18;;;;;;;12.73;6.10;;;;;;;21.74;100.00;100062.42;5059097;56;1143072;-73
2023/10/11 15:12:20;;;;;;;22.32;6.65;;;;;;;21.68;100.00;100072.67;4978881;57;1143031;-72
2023/10/11 15:17:26;;;;;;;17.10;5.58;;;;;;;21.56;100.00;100076.44;5029859;55;1143025;-73
2023/10/11 15:22:31;;;;;;;21.63;6.57;;;;;;;21.44;100.00;100084.77;5110971;56;1143083;-71
2023/10/11 15:27:38;;;;;;;9.30;5.47;;;;;;;21.32;100.00;100080.48;5093066;56;1143114;-72
2023/10/11 15:32:43;;;;;;;11.38;5.65;;;;;;;21.18;100.00;100074.69;5068568;56;1140969;-72
2023/10/11 15:37:49;;;;;;;17.33;6.73;;;;;;;21.08;100.00;100070.19;5046051;56;1143126;-73
2023/10/11 15:42:57;;;;;;;28.90;6.78;;;;;;;20.98;100.00;100073.21;5044229;57;1143270;-72
2023/10/11 15:48:03;;;;;;;12.80;6.10;;;;;;;20.89;100.00;100069.54;5030643;57;1142872;-72
2023/10/11 15:53:10;;;;;;;43.85;28.12;;;;;;;20.80;100.00;100070.19;5049899;56;1143014;-72
2023/10/11 15:58:16;;;;;;;27.95;12.10;;;;;;;20.73;100.00;100055.05;5095230;56;1144931;-74
2023/10/11 16:03:25;;;;;;;31.12;6.53;;;;;;;20.65;100.00;100060.05;4981320;56;1144866;-74
2023/10/11 16:08:31;;;;;;;14.73;7.70;;;;;;;20.57;100.00;100052.15;4968893;57;1142770;-74
2023/10/11 16:13:37;;;;;;;18.52;5.78;;;;;;;20.53;100.00;100050.87;5037723;56;1143043;-74
2023/10/11 16:18:45;;;;;;;15.90;5.67;;;;;;;20.47;100.00;100052.46;5050480;56;1142901;-74
2023/10/11 16:23:51;;;;;;;10.53;5.63;;;;;;;20.39;100.00;100062.02;4994384;57;1143153;-73
2023/10/11 16:29:02;;;;;;;18.67;6.28;;;;;;;20.32;100.00;100065.11;5051265;56;1142974;-73
2023/10/11 16:34:10;;;;;;;15.08;6.45;;;;;;;20.27;100.00;100064.88;5052874;55;1142949;-73
2023/10/11 16:39:16;;;;;;;13.32;6.83;;;;;;;20.22;100.00;100069.98;5140559;55;1143198;-74
2023/10/11 16:44:22;;;;;;;14.30;6.65;;;;;;;20.16;100.00;100068.09;5079870;55;1142797;-73
2023/10/11 16:49:29;;;;;;;12.20;6.10;;;;;;;20.09;100.00;100072.55;5135264;56;1142932;-74
2023/10/11 16:54:36;;;;;;;14.03;7.78;;;;;;;20.01;100.00;100070.30;5104381;55;1142809;-74
2023/10/11 16:59:43;;;;;;;13.28;6.55;;;;;;;19.97;100.00;100078.43;5129143;55;1142959;-75
2023/10/11 17:04:49;;;;;;;13.70;7.30;;;;;;;19.95;100.00;100084.50;5156092;56;1143087;-73
2023/10/11 17:09:54;;;;;;;13.13;5.35;;;;;;;19.90;100.00;100078.86;5137506;56;1142875;-73
2023/10/11 17:15:00;;;;;;;20.55;6.22;;;;;;;19.83;100.00;100081.99;5068023;56;1142758;-73
2023/10/11 17:20:17;;;;;;;24.07;5.40;;;;;;;19.82;100.00;100078.16;5101930;56;1142923;-74
2023/10/11 17:25:25;;;;;;;13.45;5.92;;;;;;;19.76;100.00;100081.08;5096159;56;1143254;-73
2023/10/11 17:30:31;;;;;;;7.48;5.40;;;;;;;19.68;100.00;100089.76;5001100;56;1142999;-74
2023/10/11 17:35:36;;;;;;;19.73;6.17;;;;;;;19.62;100.00;100081.94;5023024;57;1140990;-73
2023/10/11 17:40:45;;;;;;;11.68;5.35;;;;;;;19.55;100.00;100089.09;4972757;57;1142891;-74
2023/10/11 17:45:49;;;;;;;10.23;5.17;;;;;;;19.47;100.00;100087.80;5034848;56;1142937;-73
2023/10/11 17:50:55;;;;;;;15.48;5.80;;;;;;;19.41;100.00;100085.34;5073669;56;1143066;-72
2023/10/11 17:56:01;;;;;;;10.50;6.30;;;;;;;19.35;100.00;100079.92;5042200;56;1142869;-73
2023/10/11 18:01:07;;;;;;;16.12;6.45;;;;;;;19.28;100.00;100080.64;5056422;56;1142837;-74
2023/10/11 18:06:12;;;;;;;10.08;6.22;;;;;;;19.21;100.00;100085.61;5091580;56;1143010;-73
2023/10/11 18:11:19;;;;;;;13.40;7.50;;;;;;;19.15;100.00;100079.12;5055972;56;1142867;-74
2023/10/11 18:16:29;;;;;;;25.17;8.35;;;;;;;19.10;100.00;100070.80;5068167;56;1143019;-74
2023/10/11 18:21:34;;;;;;;15.95;8.05;;;;;;;19.03;100.00;100063.70;5151462;56;1143037;-73
2023/10/11 18:26:40;;;;;;;15.75;9.20;;;;;;;18.99;100.00;100067.25;5103320;56;1142848;-73
2023/10/11 18:31:49;;;;;;;19.60;7.54;;;;;;;18.97;100.00;100075.47;4998626;56;1143012;-73
2023/10/11 18:36:54;;;;;;;14.50;7.10;;;;;;;18.86;100.00;100067.06;5065120;56;1142758;-74
2023/10/11 18:42:00;;;;;;;15.00;7.78;;;;;;;18.86;100.00;100067.06;4985275;57;1142679;-74
2023/10/11 18:47:06;;;;;;;25.02;9.13;;;;;;;18.81;100.00;100064.92;5050787;57;1142751;-74
2023/10/11 18:52:12;;;;;;;24.07;9.05;;;;;;;18.74;100.00;100055.97;5070222;57;1142948;-73
2023/10/11 18:57:17;;;;;;;18.40;10.53;;;;;;;18.72;100.00;100066.53;5100134;56;1142873;-74
2023/10/11 19:02:23;;;;;;;18.98;8.35;;;;;;;18.69;100.00;100064.22;5077259;56;1145029;-74
2023/10/11 19:07:29;;;;;;;15.55;7.40;;;;;;;18.63;100.00;100063.12;5097233;56;1143027;-74
2023/10/11 19:12:44;;;;;;;19.85;9.23;;;;;;;18.60;100.00;100061.63;5053857;56;1143283;-73
2023/10/11 19:17:49;;;;;;;18.52;7.95;;;;;;;18.57;100.00;100065.97;5084384;56;1143080;-75
2023/10/11 19:22:56;;;;;;;15.65;7.00;;;;;;;18.55;100.00;100063.14;5015359;56;1143225;-74
2023/10/11 19:28:01;;;;;;;23.18;8.68;;;;;;;18.54;100.00;100062.31;5038236;56;1142898;-75
2023/10/11 19:33:07;;;;;;;14.47;7.20;;;;;;;18.54;100.00;100058.30;4958821;58;1143064;-74
2023/10/11 19:38:12;;;;;;;15.30;7.28;;;;;;;18.54;100.00;100059.63;4977886;56;1143065;-74
2023/10/11 19:43:18;;;;;;;18.15;7.65;;;;;;;18.54;100.00;100056.95;5070433;56;1143103;-73
2023/10/11 19:48:25;;;;;;;13.60;8.05;;;;;;;18.51;100.00;100051.13;5021639;57;1142959;-73
2023/10/11 19:53:31;;;;;;;15.83;7.55;;;;;;;18.49;100.00;100049.12;5026775;56;1142948;-74
2023/10/11 19:58:37;;;;;;;16.02;7.62;;;;;;;18.50;100.00;100049.45;5080015;56;1143133;-73
2023/10/11 20:03:43;;;;;;;20.93;6.93;;;;;;;18.47;100.00;100043.15;5063235;56;1143120;-75
2023/10/11 20:08:49;;;;;;;13.38;6.87;;;;;;;18.45;100.00;100037.14;5022312;57;1142844;-74
2023/10/11 20:13:55;;;;;;;13.53;6.67;;;;;;;18.44;100.00;100038.98;5075914;56;1142847;-74
2023/10/11 20:19:01;;;;;;;22.52;6.50;;;;;;;18.41;100.00;100035.83;5063491;56;1143000;-74
2023/10/11 20:24:07;;;;;;;17.07;6.87;;;;;;;18.41;100.00;100042.02;5052462;56;1142828;-75
2023/10/11 20:29:17;;;;;;;12.43;7.33;;;;;;;18.42;100.00;100036.98;5063162;56;1143107;-74
2023/10/11 20:34:20;;;;;;;16.02;6.55;;;;;;;18.41;100.00;100041.18;5009872;56;1143113;-74
2023/10/11 20:39:29;;;;;;;10.58;6.08;;;;;;;18.38;100.00;100030.83;4972331;57;1143051;-74
2023/10/11 20:44:35;;;;;;;12.15;6.40;;;;;;;18.37;100.00;100027.82;5003180;57;1143049;-74
2023/10/11 20:49:40;;;;;;;11.48;6.45;;;;;;;18.35;100.00;100024.49;5019881;56;1143049;-74
2023/10/11 20:54:47;;;;;;;14.53;7.10;;;;;;;18.33;100.00;100024.70;5023025;56;1143098;-74
2023/10/11 20:59:53;;;;;;;13.72;7.55;;;;;;;18.32;100.00;100024.88;5054946;56;1143302;-74
2023/10/11 21:04:59;;;;;;;17.77;6.92;;;;;;;18.30;100.00;100017.53;5041747;57;1142635;-74
2023/10/11 21:10:10;;;;;;;17.07;7.27;;;;;;;18.32;100.00;100005.63;5022321;57;1142705;-74
2023/10/11 21:15:14;;;;;;;10.50;6.53;;;;;;;18.36;100.00;100014.94;5031418;56;1143270;-74
2023/10/11 21:20:20;;;;;;;19.70;6.50;;;;;;;18.37;100.00;100008.58;4965896;56;1143012;-73
2023/10/11 21:25:26;;;;;;;15.40;5.87;;;;;;;18.39;100.00;100004.38;5020124;57;1142944;-74
2023/10/11 21:30:34;;;;;;;11.80;5.20;;;;;;;18.38;100.00;100002.71;5021823;57;1143021;-74
2023/10/11 21:35:40;;;;;;;16.23;5.75;;;;;;;18.35;100.00;100001.73;5059050;57;1143014;-74
2023/10/11 21:40:46;;;;;;;11.50;6.33;;;;;;;18.34;100.00;99993.37;5086228;56;1143239;-74
2023/10/11 21:45:52;;;;;;;11.53;5.80;;;;;;;18.34;100.00;99992.03;5068930;56;1141039;-74
2023/10/11 21:50:57;;;;;;;14.13;5.17;;;;;;;18.34;100.00;99990.19;5039761;57;1140808;-74
2023/10/11 21:56:03;;;;;;;19.75;5.60;;;;;;;18.32;100.00;99980.70;5068398;56;1140890;-74
2023/10/11 22:01:21;;;;;;;13.67;5.20;;;;;;;18.27;100.00;99974.55;5073295;57;1140936;-74
2023/10/11 22:06:27;;;;;;;10.28;5.42;;;;;;;18.21;100.00;99969.91;5093193;57;1140666;-74
2023/10/11 22:11:33;;;;;;;12.28;4.90;;;;;;;18.21;100.00;99964.05;5047598;57;1141097;-74
2023/10/11 22:16:38;;;;;;;13.15;5.10;;;;;;;18.21;100.00;99953.84;5103001;56;1140740;-74
2023/10/11 22:21:45;;;;;;;13.20;5.67;;;;;;;18.21;100.00;99952.51;5029915;56;1140947;-74
2023/10/11 22:26:51;;;;;;;15.90;5.05;;;;;;;18.22;100.00;99953.67;5062547;56;1140833;-74
2023/10/11 22:31:57;;;;;;;9.35;5.12;;;;;;;18.24;100.00;99949.47;4960001;57;1141138;-74
2023/10/11 22:37:03;;;;;;;11.10;4.87;;;;;;;18.21;100.00;99940.46;5013337;56;1138863;-74
2023/10/11 22:42:09;;;;;;;8.50;4.37;;;;;;;18.22;100.00;99946.98;5075790;55;1141010;-74
2023/10/11 22:47:15;;;;;;;11.30;5.03;;;;;;;18.23;100.00;99941.11;5056233;56;1138660;-74
2023/10/11 22:52:21;;;;;;;16.45;5.92;;;;;;;18.23;100.00;99929.91;5056000;56;1140693;-74
2023/10/11 22:57:27;;;;;;;8.05;4.67;;;;;;;18.23;100.00;99927.73;5075942;56;1140756;-74
2023/10/11 23:02:33;;;;;;;16.40;4.93;;;;;;;18.25;100.00;99933.73;5056710;56;1138996;-76
2023/10/11 23:07:38;;;;;;;7.12;3.80;;;;;;;18.23;100.00;99930.41;5071839;56;1141015;-74
2023/10/11 23:12:50;;;;;;;10.93;4.62;;;;;;;18.23;100.00;99927.73;5070150;56;1138947;-74
2023/10/11 23:17:53;;;;;;;14.87;3.98;;;;;;;18.25;100.00;99936.41;5111140;56;1140689;-74
2023/10/11 23:23:11;;;;;;;8.27;4.37;;;;;;;18.27;100.00;99935.22;5139804;56;1140702;-74
2023/10/11 23:28:06;;;;;;;17.67;5.20;;;;;;;18.28;100.00;99926.69;5138022;56;1138610;-74